CheckWX is a tool to help pilots better visualize weather data.  It is not intended as a substitute for an official pre-flight weather briefing.

22:21:21 UTC

KGSO METAR
Piedmont Triad International Airport
Greensboro, North Carolina, USA
Current

27 mins ago

KGSO 052154Z 22008KT 10SM FEW060 FEW250 22/08 A3001 RMK AO2 SLP157 T02170083
Observed
Apr-5 @ 21:54 UTC
Wind
  • 220° at 8 KTS
Visibility
Flight Rules
VFR
Cloud Levels
  • Few at 6,000' AGL
  • Few at 25,000' AGL
Temperature
22°C / 72°F
Dewpoint
C / 46°F
Humidity
41%
Altimeter
30.01" Hg
Pressure
1016.22 hPa
Previous

1 hour ago

KGSO 052054Z 18005KT 10SM FEW050 FEW250 22/08 A3001 RMK AO2 SLP158 T02170083 56020
Observed
Apr-5 @ 20:54 UTC
Wind
  • 180° at 5 KTS
Visibility
Flight Rules
VFR
Cloud Levels
  • Few at 5,000' AGL
  • Few at 25,000' AGL
Temperature
22°C / 72°F
Dewpoint
C / 46°F
Humidity
41%
Altimeter
30.01" Hg
Pressure
1016.22 hPa
Previous

2 hours ago

KGSO 051954Z VRB04KT 10SM FEW050 FEW250 22/09 A3003 RMK AO2 SLP163 T02170089
Observed
Apr-5 @ 19:54 UTC
Wind
  • Variable at 4 KTS
Visibility
Flight Rules
VFR
Cloud Levels
  • Few at 5,000' AGL
  • Few at 25,000' AGL
Temperature
22°C / 72°F
Dewpoint
C / 48°F
Humidity
44%
Altimeter
30.03" Hg
Pressure
1016.92 hPa